Time;durP1;ratioP1;P1;durP2;ratioP2;P2;SDS_P1;SDS_P2;PMS_P1;PMS_P2;Temp;Humidity;BMP_temperature;BMP_pressure;BME280_temperature;BME280_humidity;BME280_pressure;Samples;Min_cycle;Max_cycle;Signal;HPM_P1;HPM_P2
2021/11/01 00:00:11;;;;;;;;;;;22.90;41.60;;;;;;699639;28;1439;-76
2021/11/01 00:00:32;;;;;;;;;;;23.00;41.80;;;;;;697632;28;1459;-73
2021/11/01 00:01:00;;;;;;;;;;;22.90;41.70;;;;;;696647;28;830;-74
2021/11/01 00:01:21;;;;;;;;;;;23.00;41.70;;;;;;696634;28;1671;-75
2021/11/01 00:01:42;;;;;;;;;;;22.90;41.60;;;;;;696706;28;1341;-72
2021/11/01 00:02:03;;;;;;;;;;;23.00;41.60;;;;;;696620;28;807;-74
2021/11/01 00:02:23;;;;;;;;;;;23.00;41.70;;;;;;696517;28;1037;-74
2021/11/01 00:02:45;;;;;;;;;;;22.90;41.60;;;;;;696663;28;963;-74
2021/11/01 00:03:05;;;;;;;;;;;22.90;41.60;;;;;;696745;28;890;-75
2021/11/01 00:03:26;;;;;;;;;;;22.90;41.60;;;;;;696616;28;779;-74
2021/11/01 00:03:46;;;;;;;;;;;22.90;41.60;;;;;;696608;28;767;-73
2021/11/01 00:04:07;;;;;;;;;;;23.00;41.70;;;;;;696630;28;933;-73
2021/11/01 00:04:30;;;;;;;;;;;22.90;41.60;;;;;;696671;28;850;-74
2021/11/01 00:04:50;;;;;;;;;;;22.90;41.60;;;;;;697505;28;1363;-73
2021/11/01 00:05:11;;;;;;;;;;;23.00;41.70;;;;;;699532;28;1194;-76
2021/11/01 00:05:33;;;;;;;;;;;23.00;41.70;;;;;;699042;28;1253;-73
2021/11/01 00:05:54;;;;;;;;;;;23.00;41.70;;;;;;699146;28;1393;-74
2021/11/01 00:06:15;;;;;;;;;;;22.90;41.60;;;;;;698770;28;1349;-75
2021/11/01 00:06:35;;;;;;;;;;;22.90;41.60;;;;;;699163;28;1902;-74
2021/11/01 00:06:56;;;;;;;;;;;22.90;41.60;;;;;;699206;28;1376;-75
2021/11/01 00:07:17;;;;;;;;;;;22.90;41.60;;;;;;696457;28;1350;-74
2021/11/01 00:07:38;;;;;;;;;;;22.90;41.50;;;;;;696419;28;850;-75
2021/11/01 00:07:58;;;;;;;;;;;23.00;41.60;;;;;;696760;28;889;-73
2021/11/01 00:08:19;;;;;;;;;;;23.00;41.60;;;;;;699356;28;857;-73
2021/11/01 00:08:41;;;;;;;;;;;23.00;41.60;;;;;;696060;28;1244;-74
2021/11/01 00:09:03;;;;;;;;;;;22.90;41.60;;;;;;696985;28;1366;-75
2021/11/01 00:09:27;;;;;;;;;;;22.90;41.60;;;;;;696345;28;1299;-74
2021/11/01 00:09:48;;;;;;;;;;;23.00;41.60;;;;;;696560;28;878;-76
2021/11/01 00:10:11;;;;;;;;;;;22.90;41.60;;;;;;696438;28;803;-73
2021/11/01 00:10:32;;;;;;;;;;;22.90;41.60;;;;;;697968;28;853;-73
2021/11/01 00:10:53;;;;;;;;;;;22.90;41.50;;;;;;699211;28;1265;-72
2021/11/01 00:11:14;;;;;;;;;;;23.00;41.70;;;;;;699416;28;806;-77
2021/11/01 00:11:35;;;;;;;;;;;23.00;41.60;;;;;;699433;28;826;-73
2021/11/01 00:11:55;;;;;;;;;;;23.00;41.60;;;;;;699393;28;913;-73
2021/11/01 00:12:16;;;;;;;;;;;22.90;41.60;;;;;;699594;28;821;-74
2021/11/01 00:12:37;;;;;;;;;;;23.00;41.60;;;;;;699329;28;819;-74
2021/11/01 00:12:58;;;;;;;;;;;22.90;41.60;;;;;;699374;28;923;-73
2021/11/01 00:13:18;;;;;;;;;;;22.90;41.60;;;;;;699564;28;853;-74
2021/11/01 00:13:39;;;;;;;;;;;22.90;41.60;;;;;;699445;28;845;-74
2021/11/01 00:13:59;;;;;;;;;;;22.90;41.60;;;;;;699461;28;861;-73
2021/11/01 00:14:20;;;;;;;;;;;22.90;41.70;;;;;;699532;28;869;-74
2021/11/01 00:14:41;;;;;;;;;;;22.90;41.60;;;;;;699338;28;853;-75
2021/11/01 00:15:01;;;;;;;;;;;22.90;41.60;;;;;;699445;28;801;-74
2021/11/01 00:15:22;;;;;;;;;;;22.90;41.60;;;;;;699432;28;829;-72
2021/11/01 00:15:42;;;;;;;;;;;22.90;41.60;;;;;;699511;28;949;-74
2021/11/01 00:16:03;;;;;;;;;;;22.90;41.60;;;;;;699384;28;778;-72
2021/11/01 00:16:24;;;;;;;;;;;22.90;41.60;;;;;;698962;28;1268;-74
2021/11/01 00:16:45;;;;;;;;;;;22.90;41.60;;;;;;699271;28;806;-75
2021/11/01 00:17:05;;;;;;;;;;;22.90;41.50;;;;;;699244;28;798;-74
2021/11/01 00:17:26;;;;;;;;;;;22.90;41.50;;;;;;699187;28;929;-75
2021/11/01 00:17:47;;;;;;;;;;;22.90;41.50;;;;;;699295;28;864;-75
2021/11/01 00:18:08;;;;;;;;;;;22.90;41.60;;;;;;697298;28;1450;-76
2021/11/01 00:18:28;;;;;;;;;;;23.00;41.60;;;;;;696719;28;731;-75
2021/11/01 00:18:49;;;;;;;;;;;22.90;41.50;;;;;;696609;28;928;-74
2021/11/01 00:19:09;;;;;;;;;;;22.90;41.50;;;;;;696700;28;845;-73
2021/11/01 00:19:30;;;;;;;;;;;22.90;41.60;;;;;;696674;28;956;-75
2021/11/01 00:19:51;;;;;;;;;;;22.90;41.60;;;;;;696804;28;936;-74
2021/11/01 00:20:12;;;;;;;;;;;22.90;41.60;;;;;;696781;28;925;-74
2021/11/01 00:20:33;;;;;;;;;;;22.90;41.50;;;;;;696668;28;845;-76
2021/11/01 00:20:53;;;;;;;;;;;22.90;41.60;;;;;;696205;28;1323;-74
2021/11/01 00:21:14;;;;;;;;;;;22.90;41.60;;;;;;696371;28;1211;-74
2021/11/01 00:21:35;;;;;;;;;;;22.90;41.60;;;;;;696391;28;1489;-76
2021/11/01 00:21:55;;;;;;;;;;;23.00;41.60;;;;;;696410;28;770;-75
2021/11/01 00:22:16;;;;;;;;;;;22.90;41.50;;;;;;696582;28;928;-74
2021/11/01 00:22:37;;;;;;;;;;;23.00;41.60;;;;;;696461;28;891;-75
2021/11/01 00:22:57;;;;;;;;;;;22.90;41.60;;;;;;696360;28;1211;-75
2021/11/01 00:23:18;;;;;;;;;;;22.90;41.60;;;;;;696513;28;889;-74
2021/11/01 00:23:40;;;;;;;;;;;22.90;41.60;;;;;;696401;28;885;-74
2021/11/01 00:24:03;;;;;;;;;;;22.90;41.60;;;;;;696449;28;845;-75
2021/11/01 00:24:23;;;;;;;;;;;22.90;41.70;;;;;;696358;28;1072;-73
2021/11/01 00:24:44;;;;;;;;;;;22.90;41.60;;;;;;697273;28;790;-76
2021/11/01 00:25:05;;;;;;;;;;;22.90;41.70;;;;;;696193;28;1427;-77
2021/11/01 00:25:26;;;;;;;;;;;22.90;41.60;;;;;;696402;28;1314;-74
2021/11/01 00:25:47;;;;;;;;;;;22.90;41.60;;;;;;696541;28;802;-75
2021/11/01 00:26:07;;;;;;;;;;;22.90;41.60;;;;;;696444;28;786;-73
2021/11/01 00:26:28;;;;;;;;;;;22.90;41.70;;;;;;696428;28;814;-73
2021/11/01 00:26:48;;;;;;;;;;;22.90;41.70;;;;;;696578;28;1965;-73
2021/11/01 00:27:09;;;;;;;;;;;22.90;41.60;;;;;;696538;28;1051;-75
2021/11/01 00:27:33;;;;;;;;;;;22.90;41.60;;;;;;696733;28;861;-74
2021/11/01 00:27:55;;;;;;;;;;;22.90;42.70;;;;;;696428;28;1181;-74
2021/11/01 00:28:16;;;;;;;;;;;22.90;41.60;;;;;;696890;28;802;-74
2021/11/01 00:28:37;;;;;;;;;;;22.90;41.70;;;;;;696658;28;833;-75
2021/11/01 00:29:02;;;;;;;;;;;22.90;41.70;;;;;;696628;28;853;-74
2021/11/01 00:29:23;;;;;;;;;;;22.90;41.70;;;;;;696613;28;802;-74
2021/11/01 00:29:43;;;;;;;;;;;22.90;41.70;;;;;;696799;28;849;-77
2021/11/01 00:30:06;;;;;;;;;;;22.90;41.70;;;;;;696685;28;810;-74
2021/11/01 00:30:26;;;;;;;;;;;22.90;41.70;;;;;;696569;28;1122;-75
2021/11/01 00:30:47;;;;;;;;;;;22.90;41.70;;;;;;696883;28;881;-74
2021/11/01 00:31:07;;;;;;;;;;;22.90;41.80;;;;;;696572;28;818;-75
2021/11/01 00:31:28;;;;;;;;;;;22.90;41.70;;;;;;696517;28;953;-74
2021/11/01 00:31:49;;;;;;;;;;;22.90;41.70;;;;;;696764;28;494;-74
2021/11/01 00:32:10;;;;;;;;;;;22.90;41.80;;;;;;696644;28;943;-74
2021/11/01 00:32:30;;;;;;;;;;;22.90;41.80;;;;;;696243;28;1235;-74
2021/11/01 00:32:51;;;;;;;;;;;22.90;41.80;;;;;;696418;28;941;-73
2021/11/01 00:33:12;;;;;;;;;;;22.80;41.80;;;;;;693681;28;802;-75
2021/11/01 00:33:32;;;;;;;;;;;22.80;41.90;;;;;;694109;28;933;-73
2021/11/01 00:33:53;;;;;;;;;;;22.80;41.90;;;;;;694178;28;861;-74
2021/11/01 00:34:13;;;;;;;;;;;22.90;41.90;;;;;;694535;28;877;-74
2021/11/01 00:34:34;;;;;;;;;;;22.90;41.80;;;;;;696916;28;814;-77
2021/11/01 00:34:55;;;;;;;;;;;22.90;41.80;;;;;;696941;28;822;-74
2021/11/01 00:35:15;;;;;;;;;;;22.80;41.90;;;;;;697278;28;877;-75
2021/11/01 00:35:37;;;;;;;;;;;22.80;41.80;;;;;;696743;28;1296;-74
2021/11/01 00:36:00;;;;;;;;;;;22.80;41.90;;;;;;696818;28;1187;-73
2021/11/01 00:36:20;;;;;;;;;;;22.80;41.90;;;;;;696963;28;1207;-75
2021/11/01 00:36:41;;;;;;;;;;;22.80;41.90;;;;;;697056;28;814;-74
2021/11/01 00:37:02;;;;;;;;;;;22.80;41.90;;;;;;696956;28;849;-81
2021/11/01 00:37:22;;;;;;;;;;;22.80;41.90;;;;;;696920;28;855;-73
2021/11/01 00:37:43;;;;;;;;;;;22.80;41.80;;;;;;697084;28;850;-72
2021/11/01 00:38:04;;;;;;;;;;;22.80;41.90;;;;;;697033;28;857;-75
2021/11/01 00:38:24;;;;;;;;;;;22.80;41.90;;;;;;697026;28;1362;-79
2021/11/01 00:38:45;;;;;;;;;;;22.80;42.10;;;;;;697366;28;837;-75
2021/11/01 00:39:05;;;;;;;;;;;22.80;42.00;;;;;;697185;28;845;-74
2021/11/01 00:39:26;;;;;;;;;;;22.80;42.00;;;;;;697119;28;964;-73
2021/11/01 00:39:46;;;;;;;;;;;22.80;42.00;;;;;;696883;28;1211;-73
2021/11/01 00:40:08;;;;;;;;;;;22.80;42.00;;;;;;697002;28;838;-74
2021/11/01 00:40:28;;;;;;;;;;;22.80;42.00;;;;;;696898;28;853;-75
2021/11/01 00:40:49;;;;;;;;;;;22.80;41.90;;;;;;697025;28;779;-74
2021/11/01 00:41:09;;;;;;;;;;;22.80;41.90;;;;;;696930;28;889;-74
2021/11/01 00:41:33;;;;;;;;;;;22.80;41.90;;;;;;696555;28;841;-75
2021/11/01 00:41:53;;;;;;;;;;;22.80;43.00;;;;;;696817;28;1297;-72
2021/11/01 00:42:15;;;;;;;;;;;22.80;42.00;;;;;;697049;28;845;-74
2021/11/01 00:42:35;;;;;;;;;;;22.80;42.10;;;;;;697003;28;838;-73
2021/11/01 00:42:56;;;;;;;;;;;22.80;42.10;;;;;;697011;28;849;-73
2021/11/01 00:43:17;;;;;;;;;;;22.80;42.00;;;;;;696897;28;1238;-74
2021/11/01 00:43:37;;;;;;;;;;;22.80;42.00;;;;;;696778;28;1338;-73
2021/11/01 00:43:59;;;;;;;;;;;22.80;42.00;;;;;;696948;28;802;-77
2021/11/01 00:44:20;;;;;;;;;;;22.80;42.00;;;;;;697129;28;834;-73
2021/11/01 00:44:40;;;;;;;;;;;22.80;42.00;;;;;;697100;28;1155;-74
2021/11/01 00:45:01;;;;;;;;;;;22.80;42.00;;;;;;696012;28;1266;-73
2021/11/01 00:45:22;;;;;;;;;;;22.80;42.00;;;;;;697308;28;869;-76
2021/11/01 00:45:42;;;;;;;;;;;22.80;42.00;;;;;;699798;28;952;-74
2021/11/01 00:46:03;;;;;;;;;;;22.80;42.10;;;;;;699677;28;885;-72
2021/11/01 00:46:23;;;;;;;;;;;22.80;42.10;;;;;;699400;28;1183;-76
2021/11/01 00:46:44;;;;;;;;;;;22.80;42.10;;;;;;697061;28;1906;-72
2021/11/01 00:47:05;;;;;;;;;;;22.80;42.00;;;;;;697110;28;1948;-74
2021/11/01 00:47:26;;;;;;;;;;;22.80;42.10;;;;;;696948;28;850;-73
2021/11/01 00:47:47;;;;;;;;;;;22.80;42.10;;;;;;697048;28;865;-74
2021/11/01 00:48:07;;;;;;;;;;;22.80;42.10;;;;;;696993;28;794;-73
2021/11/01 00:48:28;;;;;;;;;;;22.80;42.10;;;;;;697320;28;763;-76
2021/11/01 00:48:50;;;;;;;;;;;22.80;42.10;;;;;;699902;28;774;-77
2021/11/01 00:49:10;;;;;;;;;;;22.70;42.00;;;;;;699839;28;881;-76
2021/11/01 00:49:31;;;;;;;;;;;22.70;42.00;;;;;;699858;28;818;-75
2021/11/01 00:49:52;;;;;;;;;;;22.80;42.10;;;;;;699652;28;763;-74
2021/11/01 00:50:14;;;;;;;;;;;22.80;42.10;;;;;;699749;28;755;-74
2021/11/01 00:50:36;;;;;;;;;;;22.80;42.20;;;;;;699631;28;841;-74
2021/11/01 00:50:57;;;;;;;;;;;22.80;42.20;;;;;;699653;28;818;-75
2021/11/01 00:51:18;;;;;;;;;;;22.70;42.10;;;;;;699771;28;790;-73
2021/11/01 00:51:41;;;;;;;;;;;22.80;42.10;;;;;;698727;28;1683;-74
2021/11/01 00:52:02;;;;;;;;;;;22.70;42.10;;;;;;699649;28;909;-73
2021/11/01 00:52:26;;;;;;;;;;;22.80;42.10;;;;;;699665;28;782;-79
2021/11/01 00:52:47;;;;;;;;;;;22.80;42.10;;;;;;699657;28;838;-72
2021/11/01 00:53:07;;;;;;;;;;;22.80;42.20;;;;;;699705;28;790;-77
2021/11/01 00:53:34;;;;;;;;;;;22.70;42.20;;;;;;694308;28;1723;-74
2021/11/01 00:53:55;;;;;;;;;;;22.80;42.10;;;;;;694145;28;845;-75
2021/11/01 00:54:17;;;;;;;;;;;22.80;42.10;;;;;;694264;28;954;-73
2021/11/01 00:54:39;;;;;;;;;;;22.80;42.10;;;;;;695360;28;893;-73
2021/11/01 00:55:05;;;;;;;;;;;22.70;42.20;;;;;;696909;28;826;-73
2021/11/01 00:56:07;;;;;;;;;;;22.70;42.10;;;;;;688589;28;1647;-72
2021/11/01 00:56:11;;;;;;;;;;;22.70;42.10;;;;;;696992;28;901;-73
2021/11/01 00:56:27;;;;;;;;;;;22.70;42.20;;;;;;695161;28;1517;-74
2021/11/01 00:56:48;;;;;;;;;;;22.70;42.10;;;;;;697046;28;913;-74
2021/11/01 00:57:08;;;;;;;;;;;22.70;42.10;;;;;;697102;28;802;-74
2021/11/01 00:57:29;;;;;;;;;;;22.70;42.20;;;;;;697145;28;893;-75
2021/11/01 00:57:52;;;;;;;;;;;22.70;42.10;;;;;;697638;28;1464;-73
2021/11/01 00:58:13;;;;;;;;;;;22.70;42.10;;;;;;699927;28;913;-76
2021/11/01 00:58:34;;;;;;;;;;;22.70;42.10;;;;;;699804;28;862;-74
2021/11/01 00:58:54;;;;;;;;;;;22.70;42.10;;;;;;699832;28;941;-74
2021/11/01 00:59:15;;;;;;;;;;;22.70;42.10;;;;;;699918;28;901;-73
2021/11/01 00:59:35;;;;;;;;;;;22.70;42.20;;;;;;698689;28;1439;-74
2021/11/01 00:59:57;;;;;;;;;;;22.70;42.20;;;;;;697026;28;1070;-73
2021/11/01 01:00:19;;;;;;;;;;;22.70;42.20;;;;;;697222;28;892;-74
2021/11/01 01:00:40;;;;;;;;;;;22.70;42.20;;;;;;697009;28;783;-76
2021/11/01 01:01:01;;;;;;;;;;;22.70;42.20;;;;;;697055;28;786;-72
2021/11/01 01:01:22;;;;;;;;;;;22.70;42.30;;;;;;697086;28;814;-73
2021/11/01 01:01:43;;;;;;;;;;;22.70;42.10;;;;;;697158;28;894;-74
2021/11/01 01:02:03;;;;;;;;;;;22.70;42.20;;;;;;697715;28;1448;-73
2021/11/01 01:02:25;;;;;;;;;;;22.70;42.20;;;;;;697473;28;1452;-74
2021/11/01 01:02:46;;;;;;;;;;;22.70;42.20;;;;;;698342;28;1480;-76
2021/11/01 01:03:09;;;;;;;;;;;22.70;42.20;;;;;;699486;28;1476;-76
2021/11/01 01:03:29;;;;;;;;;;;22.70;42.20;;;;;;699580;28;1302;-73
2021/11/01 01:03:50;;;;;;;;;;;22.70;42.20;;;;;;699730;28;798;-74
2021/11/01 01:04:11;;;;;;;;;;;22.70;42.30;;;;;;697470;28;1259;-75
2021/11/01 01:04:31;;;;;;;;;;;22.70;42.30;;;;;;696749;28;1287;-75
2021/11/01 01:04:52;;;;;;;;;;;22.70;42.30;;;;;;696909;28;857;-72
2021/11/01 01:05:13;;;;;;;;;;;22.70;42.30;;;;;;696920;28;857;-72
2021/11/01 01:05:34;;;;;;;;;;;22.70;42.30;;;;;;696920;28;991;-72
2021/11/01 01:05:58;;;;;;;;;;;22.70;42.30;;;;;;696865;28;778;-80
2021/11/01 01:06:18;;;;;;;;;;;22.70;42.30;;;;;;697049;28;882;-75
2021/11/01 01:06:39;;;;;;;;;;;22.70;42.30;;;;;;697115;28;1896;-77
2021/11/01 01:07:01;;;;;;;;;;;22.70;42.30;;;;;;697105;28;908;-77
2021/11/01 01:07:22;;;;;;;;;;;22.70;42.30;;;;;;697158;28;846;-73
2021/11/01 01:07:42;;;;;;;;;;;22.70;42.30;;;;;;697265;28;810;-77
2021/11/01 01:08:03;;;;;;;;;;;22.70;42.30;;;;;;697585;28;1389;-73
2021/11/01 01:08:23;;;;;;;;;;;22.70;42.30;;;;;;699885;28;1048;-77
2021/11/01 01:08:44;;;;;;;;;;;22.70;42.30;;;;;;699970;28;774;-74
2021/11/01 01:09:05;;;;;;;;;;;22.70;42.40;;;;;;699151;28;1501;-79
2021/11/01 01:09:25;;;;;;;;;;;22.70;42.40;;;;;;699445;28;1032;-75
2021/11/01 01:09:47;;;;;;;;;;;22.70;42.30;;;;;;699664;28;830;-76
2021/11/01 01:10:08;;;;;;;;;;;22.70;42.30;;;;;;698833;28;1519;-74
2021/11/01 01:10:29;;;;;;;;;;;22.70;42.30;;;;;;698361;28;1579;-83
2021/11/01 01:10:50;;;;;;;;;;;22.70;42.30;;;;;;699931;28;1494;-83
2021/11/01 01:11:10;;;;;;;;;;;22.70;42.30;;;;;;699290;28;1422;-78
2021/11/01 01:11:31;;;;;;;;;;;22.70;42.40;;;;;;699897;28;972;-81
2021/11/01 01:11:51;;;;;;;;;;;22.70;42.30;;;;;;699854;28;845;-84
2021/11/01 01:12:12;;;;;;;;;;;22.70;42.40;;;;;;700022;28;818;-77
2021/11/01 01:12:33;;;;;;;;;;;22.70;42.30;;;;;;699855;28;821;-81
2021/11/01 01:12:53;;;;;;;;;;;22.70;42.30;;;;;;699788;28;790;-80
2021/11/01 01:13:17;;;;;;;;;;;22.60;42.30;;;;;;699603;28;1183;-82
2021/11/01 01:13:38;;;;;;;;;;;22.60;42.30;;;;;;696838;28;1637;-83
2021/11/01 01:13:59;;;;;;;;;;;22.60;42.30;;;;;;696926;28;794;-79
2021/11/01 01:14:26;;;;;;;;;;;22.60;42.50;;;;;;696994;28;767;-79
2021/11/01 01:14:54;;;;;;;;;;;22.60;42.60;;;;;;696149;28;1675;-76
2021/11/01 01:15:20;;;;;;;;;;;22.60;42.50;;;;;;699675;28;912;-80
2021/11/01 01:16:08;;;;;;;;;;;22.60;42.50;;;;;;699555;28;1482;-78
2021/11/01 01:16:26;;;;;;;;;;;22.60;42.50;;;;;;698784;28;1439;-79
2021/11/01 01:16:47;;;;;;;;;;;22.60;42.50;;;;;;696094;28;1628;-77
2021/11/01 01:17:07;;;;;;;;;;;22.60;42.50;;;;;;695736;28;1604;-80
2021/11/01 01:17:28;;;;;;;;;;;22.60;42.40;;;;;;697632;28;941;-75
2021/11/01 01:17:51;;;;;;;;;;;22.60;42.40;;;;;;699636;28;907;-82
2021/11/01 01:18:17;;;;;;;;;;;22.60;42.40;;;;;;696827;28;1250;-80
2021/11/01 01:18:38;;;;;;;;;;;22.60;42.50;;;;;;696858;28;837;-83
2021/11/01 01:19:00;;;;;;;;;;;22.60;42.50;;;;;;696857;28;1330;-82
2021/11/01 01:19:23;;;;;;;;;;;22.60;42.50;;;;;;698404;28;849;-76
2021/11/01 01:19:50;;;;;;;;;;;22.60;42.40;;;;;;696546;28;1433;-82
2021/11/01 01:20:13;;;;;;;;;;;22.60;42.40;;;;;;699291;28;922;-77
2021/11/01 01:20:34;;;;;;;;;;;22.60;42.40;;;;;;699624;28;833;-84
2021/11/01 01:20:58;;;;;;;;;;;22.60;42.30;;;;;;699598;28;893;-75
2021/11/01 01:22:14;;;;;;;;;;;22.60;42.30;;;;;;697090;28;725;-77
2021/11/01 01:22:34;;;;;;;;;;;22.60;42.30;;;;;;697015;28;817;-82
2021/11/01 01:22:55;;;;;;;;;;;22.60;42.30;;;;;;697094;28;830;-75
2021/11/01 01:23:16;;;;;;;;;;;22.60;43.30;;;;;;699522;28;1429;-79
2021/11/01 01:23:36;;;;;;;;;;;22.60;42.30;;;;;;699192;28;1449;-77
2021/11/01 01:23:57;;;;;;;;;;;22.60;42.30;;;;;;696441;28;1485;-82
2021/11/01 01:24:18;;;;;;;;;;;22.60;42.30;;;;;;697016;28;882;-76
2021/11/01 01:24:38;;;;;;;;;;;22.60;42.30;;;;;;695614;28;1275;-78
2021/11/01 01:25:22;;;;;;;;;;;22.60;42.30;;;;;;696794;28;855;-81
2021/11/01 01:25:47;;;;;;;;;;;22.60;42.30;;;;;;694860;28;969;-77
2021/11/01 01:26:09;;;;;;;;;;;22.60;42.40;;;;;;693828;28;1227;-74
2021/11/01 01:26:29;;;;;;;;;;;22.60;42.40;;;;;;695493;28;797;-74
2021/11/01 01:26:50;;;;;;;;;;;22.60;42.30;;;;;;696846;28;1894;-74
2021/11/01 01:27:11;;;;;;;;;;;22.60;42.30;;;;;;696759;28;1014;-76
2021/11/01 01:27:31;;;;;;;;;;;22.60;42.30;;;;;;696817;28;952;-78
2021/11/01 01:27:52;;;;;;;;;;;22.60;42.30;;;;;;696856;28;1461;-76
2021/11/01 01:28:14;;;;;;;;;;;22.60;42.30;;;;;;699859;28;813;-77
2021/11/01 01:28:34;;;;;;;;;;;22.60;42.30;;;;;;699778;28;805;-82
2021/11/01 01:28:56;;;;;;;;;;;22.60;42.30;;;;;;699821;28;841;-79
2021/11/01 01:29:16;;;;;;;;;;;22.60;42.30;;;;;;699864;28;794;-74
2021/11/01 01:29:37;;;;;;;;;;;22.60;42.40;;;;;;699813;28;888;-78
2021/11/01 01:29:58;;;;;;;;;;;22.60;42.40;;;;;;699809;28;786;-78
2021/11/01 01:30:19;;;;;;;;;;;22.60;43.40;;;;;;699825;28;868;-76
2021/11/01 01:30:40;;;;;;;;;;;22.60;42.30;;;;;;699782;28;861;-76
2021/11/01 01:31:01;;;;;;;;;;;22.60;42.30;;;;;;699841;28;833;-80
2021/11/01 01:31:21;;;;;;;;;;;22.60;42.30;;;;;;699736;28;845;-80
2021/11/01 01:31:42;;;;;;;;;;;22.60;42.30;;;;;;699857;28;872;-79
2021/11/01 01:32:05;;;;;;;;;;;22.60;42.30;;;;;;699157;28;1372;-75
2021/11/01 01:32:26;;;;;;;;;;;22.60;42.30;;;;;;697014;28;1658;-75
2021/11/01 01:32:46;;;;;;;;;;;22.60;42.30;;;;;;698679;28;1785;-79
2021/11/01 01:33:10;;;;;;;;;;;22.60;42.30;;;;;;699642;28;1359;-76
2021/11/01 01:33:30;;;;;;;;;;;22.60;42.30;;;;;;699540;28;873;-81
2021/11/01 01:33:51;;;;;;;;;;;22.60;42.30;;;;;;699611;28;912;-76
2021/11/01 01:34:11;;;;;;;;;;;22.60;42.30;;;;;;699596;28;928;-76
2021/11/01 01:34:32;;;;;;;;;;;22.60;42.30;;;;;;699467;28;833;-77
2021/11/01 01:34:53;;;;;;;;;;;22.60;42.40;;;;;;699495;28;830;-76
2021/11/01 01:35:14;;;;;;;;;;;22.60;42.30;;;;;;699629;28;817;-74
2021/11/01 01:35:37;;;;;;;;;;;22.60;42.30;;;;;;699624;28;901;-73
2021/11/01 01:35:57;;;;;;;;;;;22.60;42.30;;;;;;699490;28;885;-74
2021/11/01 01:36:18;;;;;;;;;;;22.60;42.20;;;;;;699704;28;786;-74
2021/11/01 01:36:39;;;;;;;;;;;22.60;42.30;;;;;;699423;28;854;-74
2021/11/01 01:36:59;;;;;;;;;;;22.60;42.30;;;;;;699099;28;1690;-73
2021/11/01 01:37:20;;;;;;;;;;;22.60;42.30;;;;;;699872;28;818;-76
2021/11/01 01:37:41;;;;;;;;;;;22.60;42.30;;;;;;699854;28;765;-78
2021/11/01 01:38:01;;;;;;;;;;;22.60;42.30;;;;;;699760;28;793;-73
2021/11/01 01:38:22;;;;;;;;;;;22.60;42.30;;;;;;699707;28;865;-75
2021/11/01 01:38:43;;;;;;;;;;;22.60;42.30;;;;;;699844;28;809;-74
2021/11/01 01:39:04;;;;;;;;;;;22.60;42.30;;;;;;699759;28;873;-75
2021/11/01 01:39:25;;;;;;;;;;;22.60;42.30;;;;;;699714;28;929;-74
2021/11/01 01:39:46;;;;;;;;;;;22.60;42.30;;;;;;699872;28;821;-76
2021/11/01 01:40:08;;;;;;;;;;;22.60;42.30;;;;;;698937;28;1713;-74
2021/11/01 01:40:28;;;;;;;;;;;22.60;42.30;;;;;;696903;28;889;-74
2021/11/01 01:40:49;;;;;;;;;;;22.60;42.30;;;;;;698169;28;1796;-75
2021/11/01 01:41:11;;;;;;;;;;;22.60;42.30;;;;;;697033;28;861;-74
2021/11/01 01:41:31;;;;;;;;;;;22.60;42.30;;;;;;697019;28;881;-72
2021/11/01 01:41:52;;;;;;;;;;;22.60;42.40;;;;;;697056;28;850;-79
2021/11/01 01:42:13;;;;;;;;;;;22.60;42.50;;;;;;697099;28;773;-80
2021/11/01 01:42:34;;;;;;;;;;;22.60;42.50;;;;;;696847;28;1324;-77
2021/11/01 01:42:55;;;;;;;;;;;22.60;42.40;;;;;;696965;28;1139;-77
2021/11/01 01:43:16;;;;;;;;;;;22.60;42.30;;;;;;697071;28;1658;-76
2021/11/01 01:43:36;;;;;;;;;;;22.60;42.30;;;;;;698821;28;1815;-74
2021/11/01 01:43:59;;;;;;;;;;;22.60;42.40;;;;;;699485;28;910;-73
2021/11/01 01:44:19;;;;;;;;;;;22.60;42.30;;;;;;699554;28;837;-79
2021/11/01 01:44:40;;;;;;;;;;;22.60;42.30;;;;;;698369;28;1698;-83
2021/11/01 01:45:01;;;;;;;;;;;22.60;42.30;;;;;;693760;28;1261;-74
2021/11/01 01:45:21;;;;;;;;;;;22.60;42.30;;;;;;696901;28;1553;-74
2021/11/01 01:45:42;;;;;;;;;;;22.60;42.30;;;;;;699614;28;960;-75
2021/11/01 01:46:02;;;;;;;;;;;22.60;42.30;;;;;;699540;28;825;-76
2021/11/01 01:46:24;;;;;;;;;;;22.60;42.30;;;;;;699221;28;1223;-75
2021/11/01 01:46:44;;;;;;;;;;;22.60;42.40;;;;;;699518;28;1965;-74
2021/11/01 01:47:06;;;;;;;;;;;22.60;42.40;;;;;;698864;28;1502;-75
2021/11/01 01:47:27;;;;;;;;;;;22.60;42.40;;;;;;696958;28;868;-78
2021/11/01 01:47:48;;;;;;;;;;;22.60;42.50;;;;;;697056;28;889;-74
2021/11/01 01:48:08;;;;;;;;;;;22.60;42.50;;;;;;697051;28;1495;-76
2021/11/01 01:48:29;;;;;;;;;;;22.60;42.50;;;;;;700330;28;1579;-73
2021/11/01 01:48:52;;;;;;;;;;;22.60;42.50;;;;;;700870;28;1630;-74
2021/11/01 01:49:13;;;;;;;;;;;22.60;42.50;;;;;;699620;28;829;-76
2021/11/01 01:49:34;;;;;;;;;;;22.60;42.50;;;;;;699455;28;865;-74
2021/11/01 01:49:54;;;;;;;;;;;22.60;42.50;;;;;;699579;28;817;-75
2021/11/01 01:50:16;;;;;;;;;;;22.60;43.70;;;;;;697667;28;1658;-74
2021/11/01 01:50:37;;;;;;;;;;;22.60;42.60;;;;;;696942;28;795;-75
2021/11/01 01:50:58;;;;;;;;;;;22.60;42.60;;;;;;697009;28;833;-75
2021/11/01 01:51:20;;;;;;;;;;;22.60;42.70;;;;;;696949;28;1424;-74
2021/11/01 01:51:40;;;;;;;;;;;22.60;42.70;;;;;;696947;28;837;-73
2021/11/01 01:52:01;;;;;;;;;;;22.60;42.70;;;;;;696988;28;857;-78
2021/11/01 01:52:22;;;;;;;;;;;22.60;42.60;;;;;;697051;28;873;-74
2021/11/01 01:52:43;;;;;;;;;;;22.60;42.60;;;;;;697065;28;890;-79
2021/11/01 01:53:04;;;;;;;;;;;22.70;42.70;;;;;;696967;28;869;-72
2021/11/01 01:53:24;;;;;;;;;;;22.60;42.60;;;;;;696892;28;941;-76
2021/11/01 01:53:45;;;;;;;;;;;22.60;42.50;;;;;;699193;28;1494;-78
2021/11/01 01:54:06;;;;;;;;;;;22.70;42.60;;;;;;699917;28;1545;-74
2021/11/01 01:54:26;;;;;;;;;;;22.70;42.60;;;;;;702292;28;797;-74
2021/11/01 01:54:47;;;;;;;;;;;22.60;42.50;;;;;;702457;28;856;-77
2021/11/01 01:55:10;;;;;;;;;;;22.60;42.60;;;;;;702236;28;944;-73
2021/11/01 01:55:31;;;;;;;;;;;22.70;42.60;;;;;;701641;28;801;-78
2021/11/01 01:55:51;;;;;;;;;;;22.60;42.60;;;;;;699795;28;850;-74
2021/11/01 01:56:12;;;;;;;;;;;22.70;42.60;;;;;;699875;28;932;-72
2021/11/01 01:56:33;;;;;;;;;;;22.70;42.60;;;;;;699347;28;1448;-74
2021/11/01 01:56:53;;;;;;;;;;;22.70;42.70;;;;;;699551;28;802;-72
2021/11/01 01:57:14;;;;;;;;;;;22.60;42.50;;;;;;696770;28;1197;-73
2021/11/01 01:57:35;;;;;;;;;;;22.70;42.60;;;;;;696724;28;897;-72
2021/11/01 01:57:55;;;;;;;;;;;22.60;42.60;;;;;;696767;28;937;-74
2021/11/01 01:58:16;;;;;;;;;;;22.60;42.60;;;;;;697018;28;1180;-76
2021/11/01 01:58:42;;;;;;;;;;;22.70;42.70;;;;;;699492;28;927;-73
2021/11/01 01:59:07;;;;;;;;;;;22.70;42.70;;;;;;699482;28;1680;-71
2021/11/01 01:59:28;;;;;;;;;;;22.70;42.70;;;;;;699285;28;925;-80
2021/11/01 01:59:49;;;;;;;;;;;22.70;42.60;;;;;;699651;28;857;-72
2021/11/01 02:00:22;;;;;;;;;;;22.70;42.60;;;;;;699558;28;864;-76
2021/11/01 02:00:59;;;;;;;;;;;22.60;42.50;;;;;;699627;28;802;-73
2021/11/01 02:01:21;;;;;;;;;;;22.70;42.60;;;;;;699853;28;885;-73
2021/11/01 02:01:41;;;;;;;;;;;22.60;42.60;;;;;;699771;28;944;-73
2021/11/01 02:02:03;;;;;;;;;;;22.70;42.60;;;;;;699661;28;892;-72
2021/11/01 02:02:24;;;;;;;;;;;22.70;42.60;;;;;;699730;28;865;-72
2021/11/01 02:02:46;;;;;;;;;;;22.70;42.60;;;;;;699347;28;1740;-72
2021/11/01 02:03:08;;;;;;;;;;;22.70;42.60;;;;;;699471;28;869;-77
2021/11/01 02:03:28;;;;;;;;;;;22.70;42.60;;;;;;699475;28;810;-72
2021/11/01 02:03:50;;;;;;;;;;;22.70;42.60;;;;;;699513;28;806;-75
2021/11/01 02:04:11;;;;;;;;;;;22.70;42.60;;;;;;696349;28;1421;-74
2021/11/01 02:04:33;;;;;;;;;;;22.70;42.60;;;;;;697510;28;798;-73
2021/11/01 02:04:55;;;;;;;;;;;22.70;42.60;;;;;;699366;28;1496;-73
2021/11/01 02:05:16;;;;;;;;;;;22.70;42.60;;;;;;699640;28;782;-73
2021/11/01 02:05:46;;;;;;;;;;;22.70;42.60;;;;;;699549;28;919;-73
2021/11/01 02:06:12;;;;;;;;;;;22.70;42.70;;;;;;699475;28;912;-72
2021/11/01 02:06:36;;;;;;;;;;;22.70;42.60;;;;;;696886;28;1484;-79
2021/11/01 02:07:17;;;;;;;;;;;22.70;42.60;;;;;;696957;28;885;-72
2021/11/01 02:07:44;;;;;;;;;;;22.70;42.60;;;;;;696901;28;818;-76
2021/11/01 02:08:06;;;;;;;;;;;22.70;42.70;;;;;;696526;28;1465;-75
2021/11/01 02:08:27;;;;;;;;;;;22.70;42.60;;;;;;696746;28;880;-73
2021/11/01 02:09:07;;;;;;;;;;;22.70;42.60;;;;;;696840;28;806;-74
2021/11/01 02:09:32;;;;;;;;;;;22.70;42.50;;;;;;696763;28;925;-73
2021/11/01 02:10:02;;;;;;;;;;;22.70;42.50;;;;;;696792;28;790;-73
2021/11/01 02:10:29;;;;;;;;;;;22.70;42.50;;;;;;696862;28;802;-74
2021/11/01 02:10:53;;;;;;;;;;;22.70;42.50;;;;;;697070;28;853;-73
2021/11/01 02:11:15;;;;;;;;;;;22.70;42.50;;;;;;697040;28;882;-73
2021/11/01 02:11:59;;;;;;;;;;;22.70;42.40;;;;;;696882;28;865;-74
2021/11/01 02:12:23;;;;;;;;;;;22.70;42.50;;;;;;697012;28;897;-74
2021/11/01 02:12:54;;;;;;;;;;;22.70;42.50;;;;;;697047;28;905;-73